Time;durP1;ratioP1;P1;durP2;ratioP2;P2;SDS_P1;SDS_P2;PMS_P1;PMS_P2;Temp;Humidity;BMP_temperature;BMP_pressure;BME280_temperature;BME280_humidity;BME280_pressure;Samples;Min_cycle;Max_cycle;Signal;HPM_P1;HPM_P2
2023/09/03 00:01:37;;;;;;;3.83;2.28;;;13.50;99.90;;;;;;5052152;28;20036;-85
2023/09/03 00:04:03;;;;;;;5.47;2.30;;;13.40;99.90;;;;;;5062578;28;20468;-84
2023/09/03 00:06:28;;;;;;;3.50;2.20;;;13.30;99.90;;;;;;5073535;28;20150;-84
2023/09/03 00:08:54;;;;;;;5.10;2.40;;;13.30;99.90;;;;;;5068487;28;20408;-84
2023/09/03 00:11:19;;;;;;;5.88;2.20;;;13.20;99.90;;;;;;5046065;28;20037;-83
2023/09/03 00:13:45;;;;;;;2.97;1.65;;;13.20;99.90;;;;;;5039881;28;20119;-84
2023/09/03 00:16:11;;;;;;;3.35;1.60;;;13.30;99.90;;;;;;5069466;28;20047;-85
2023/09/03 00:18:37;;;;;;;1.95;1.50;;;13.30;99.90;;;;;;5054575;28;20045;-84
2023/09/03 00:21:04;;;;;;;2.45;1.60;;;13.20;99.90;;;;;;5052055;28;20155;-84
2023/09/03 00:23:31;;;;;;;3.45;2.10;;;13.20;99.90;;;;;;5056896;28;20133;-84
2023/09/03 00:25:58;;;;;;;3.05;1.98;;;13.10;99.90;;;;;;5071964;28;20493;-84
2023/09/03 00:28:25;;;;;;;6.60;2.92;;;13.10;99.90;;;;;;5061051;28;20501;-83
2023/09/03 00:31:05;;;;;;;5.95;2.75;;;13.10;99.90;;;;;;5051867;28;20107;-84
2023/09/03 00:33:32;;;;;;;2.40;1.35;;;13.00;99.90;;;;;;5041128;28;20040;-84
2023/09/03 00:35:58;;;;;;;2.17;1.30;;;12.90;99.90;;;;;;5055427;28;20431;-83
2023/09/03 00:38:24;;;;;;;2.70;1.65;;;13.00;99.90;;;;;;5046068;28;20041;-84
2023/09/03 00:40:50;;;;;;;2.30;1.38;;;13.00;99.90;;;;;;5046322;28;20094;-84
2023/09/03 00:43:16;;;;;;;4.43;2.20;;;13.00;99.90;;;;;;5075769;28;20060;-84
2023/09/03 00:45:44;;;;;;;5.45;2.80;;;13.00;99.90;;;;;;5059217;28;20054;-84
2023/09/03 00:48:13;;;;;;;6.25;3.00;;;12.90;99.90;;;;;;5073280;28;20040;-84
2023/09/03 00:50:41;;;;;;;5.03;2.10;;;12.80;99.90;;;;;;5055355;28;20033;-83
2023/09/03 00:53:08;;;;;;;4.45;2.47;;;12.70;99.90;;;;;;5038939;28;20080;-84
2023/09/03 00:55:34;;;;;;;4.80;2.30;;;12.60;99.90;;;;;;5038943;28;20120;-83
2023/09/03 00:58:00;;;;;;;4.63;2.20;;;12.60;99.90;;;;;;5039799;28;20041;-83
2023/09/03 01:00:26;;;;;;;4.00;2.08;;;12.60;99.90;;;;;;5057558;28;20064;-83
2023/09/03 01:02:54;;;;;;;5.85;2.45;;;12.60;99.90;;;;;;5055061;28;20055;-82
2023/09/03 01:05:19;;;;;;;6.68;3.05;;;12.60;99.90;;;;;;5058640;28;20040;-83
2023/09/03 01:07:46;;;;;;;7.35;3.45;;;12.60;99.90;;;;;;5057289;28;20378;-83
2023/09/03 01:10:12;;;;;;;4.22;2.00;;;12.60;99.90;;;;;;5074856;28;20036;-82
2023/09/03 01:12:46;;;;;;;5.97;3.10;;;12.70;99.90;;;;;;5055208;28;20048;-83
2023/09/03 01:15:26;;;;;;;6.47;3.35;;;12.70;99.90;;;;;;5055239;28;20505;-83
2023/09/03 01:18:04;;;;;;;6.65;3.20;;;12.70;99.90;;;;;;5054407;28;20044;-83
2023/09/03 01:20:35;;;;;;;5.93;3.03;;;12.60;99.90;;;;;;5074766;28;20515;-83
2023/09/03 01:23:17;;;;;;;6.43;3.38;;;12.60;99.90;;;;;;5071278;28;20501;-83
2023/09/03 01:26:00;;;;;;;5.90;3.15;;;12.60;99.90;;;;;;5051732;28;20088;-83
2023/09/03 01:28:30;;;;;;;5.20;2.58;;;12.60;99.90;;;;;;5058128;28;20141;-83
2023/09/03 01:31:04;;;;;;;5.32;3.00;;;12.60;99.90;;;;;;5055453;28;20170;-83
2023/09/03 01:33:32;;;;;;;4.90;2.80;;;12.60;99.90;;;;;;5069104;28;20089;-84
2023/09/03 01:35:59;;;;;;;6.13;3.70;;;12.50;99.90;;;;;;5075069;28;20052;-84
2023/09/03 01:38:26;;;;;;;5.40;3.28;;;12.50;99.90;;;;;;5074992;28;20055;-84
2023/09/03 01:40:55;;;;;;;6.15;3.25;;;12.50;99.90;;;;;;5074795;28;20374;-84
2023/09/03 01:43:21;;;;;;;7.60;3.70;;;12.50;99.90;;;;;;5037853;28;20065;-84
2023/09/03 01:45:50;;;;;;;7.63;4.47;;;12.50;99.90;;;;;;5055890;28;20045;-83
2023/09/03 01:48:43;;;;;;;8.02;5.05;;;12.50;99.90;;;;;;5060616;28;20044;-84
2023/09/03 01:51:42;;;;;;;8.10;4.78;;;12.50;99.90;;;;;;5075889;28;20111;-84
2023/09/03 01:54:33;;;;;;;6.50;3.40;;;12.50;99.90;;;;;;5054015;28;20407;-84
2023/09/03 01:57:05;;;;;;;7.55;4.68;;;12.40;99.90;;;;;;5071387;28;20045;-84
2023/09/03 01:59:40;;;;;;;8.02;4.85;;;12.40;99.90;;;;;;5068038;28;20047;-83
2023/09/03 02:02:08;;;;;;;7.18;4.60;;;12.40;99.90;;;;;;5050642;28;20043;-82
2023/09/03 02:04:33;;;;;;;7.30;4.45;;;12.40;99.90;;;;;;5034596;28;20033;-83
2023/09/03 02:06:59;;;;;;;8.07;5.00;;;12.40;99.90;;;;;;5034223;28;20041;-83
2023/09/03 02:09:25;;;;;;;7.43;4.80;;;12.40;99.90;;;;;;5045456;28;20174;-84
2023/09/03 02:11:50;;;;;;;7.32;4.57;;;12.40;99.90;;;;;;5072382;28;20388;-83
2023/09/03 02:14:16;;;;;;;8.20;4.68;;;12.40;99.90;;;;;;5072658;28;20040;-83
2023/09/03 02:16:41;;;;;;;6.63;3.78;;;12.40;99.90;;;;;;5053258;28;20425;-82
2023/09/03 02:19:07;;;;;;;8.05;3.85;;;12.40;99.90;;;;;;5062618;28;20051;-83
2023/09/03 02:21:32;;;;;;;6.78;3.65;;;12.40;99.90;;;;;;5057112;28;20051;-83
2023/09/03 02:23:58;;;;;;;7.57;4.47;;;12.40;99.90;;;;;;5043017;28;20037;-84
2023/09/03 02:26:23;;;;;;;9.13;5.95;;;12.30;99.90;;;;;;5054095;28;20066;-83
2023/09/03 02:28:49;;;;;;;7.95;4.97;;;12.20;99.90;;;;;;5045456;28;20049;-83
2023/09/03 02:31:14;;;;;;;7.55;4.97;;;12.20;99.90;;;;;;5072733;28;20037;-82
2023/09/03 02:33:40;;;;;;;6.75;3.30;;;12.20;99.90;;;;;;5066250;28;20033;-84
2023/09/03 02:36:06;;;;;;;6.18;3.78;;;12.30;99.90;;;;;;5052637;28;20044;-83
2023/09/03 02:38:31;;;;;;;5.45;3.00;;;12.30;99.90;;;;;;5057007;28;20048;-83
2023/09/03 02:40:57;;;;;;;6.32;3.53;;;12.20;99.90;;;;;;5056856;28;20044;-83
2023/09/03 02:43:23;;;;;;;6.00;3.10;;;12.30;99.90;;;;;;5053680;28;20033;-82
2023/09/03 02:45:49;;;;;;;5.50;3.03;;;12.20;99.90;;;;;;5037121;28;20043;-84
2023/09/03 02:48:15;;;;;;;6.20;3.30;;;12.20;99.90;;;;;;5057389;28;20119;-83
2023/09/03 02:50:40;;;;;;;5.85;3.35;;;12.20;99.90;;;;;;5073310;28;20068;-82
2023/09/03 02:53:07;;;;;;;7.38;4.20;;;12.20;99.90;;;;;;5045183;28;20041;-82
2023/09/03 02:55:33;;;;;;;7.03;4.35;;;12.20;99.90;;;;;;5049708;28;20126;-83
2023/09/03 02:57:59;;;;;;;7.38;4.32;;;12.10;99.90;;;;;;5073216;28;20068;-83
2023/09/03 03:00:24;;;;;;;7.75;4.40;;;12.00;99.90;;;;;;5073301;28;20072;-83
2023/09/03 03:02:52;;;;;;;8.40;5.10;;;12.00;99.90;;;;;;5071052;28;20083;-83
2023/09/03 03:05:18;;;;;;;10.48;5.18;;;11.90;99.90;;;;;;5061049;28;20409;-83
2023/09/03 03:07:44;;;;;;;8.93;5.10;;;11.90;99.90;;;;;;5053390;28;20031;-83
2023/09/03 03:10:10;;;;;;;7.78;5.05;;;11.90;99.90;;;;;;5053308;28;20073;-83
2023/09/03 03:12:36;;;;;;;7.95;4.95;;;11.90;99.90;;;;;;5057817;28;20119;-83
2023/09/03 03:15:01;;;;;;;7.20;3.67;;;12.00;99.90;;;;;;5049015;28;20469;-83
2023/09/03 03:17:27;;;;;;;4.80;2.90;;;12.00;99.90;;;;;;5054194;28;20112;-83
2023/09/03 03:19:53;;;;;;;4.88;2.60;;;12.00;99.90;;;;;;5052845;28;20052;-83
2023/09/03 03:22:18;;;;;;;4.82;2.70;;;12.00;99.90;;;;;;5052852;28;20063;-83
2023/09/03 03:24:44;;;;;;;4.85;2.72;;;12.00;99.90;;;;;;5067939;28;20401;-84
2023/09/03 03:27:09;;;;;;;4.95;2.70;;;12.00;99.90;;;;;;5052419;28;20053;-83
2023/09/03 03:29:35;;;;;;;4.88;2.60;;;12.00;99.90;;;;;;5053517;28;20048;-83
2023/09/03 03:32:01;;;;;;;5.13;2.50;;;11.90;99.90;;;;;;5036193;28;20501;-83
2023/09/03 03:34:26;;;;;;;6.13;3.60;;;11.90;99.90;;;;;;5034957;28;20550;-83
2023/09/03 03:36:53;;;;;;;6.00;3.67;;;11.80;99.90;;;;;;5051936;28;20515;-82
2023/09/03 03:39:19;;;;;;;6.35;3.75;;;11.80;99.90;;;;;;5036137;28;20462;-83
2023/09/03 03:41:45;;;;;;;7.88;4.65;;;11.80;99.90;;;;;;5034770;28;20041;-83
2023/09/03 03:44:11;;;;;;;8.90;5.20;;;11.70;99.90;;;;;;5046638;28;20037;-83
2023/09/03 03:46:37;;;;;;;8.05;4.97;;;11.70;99.90;;;;;;5040786;28;20086;-83
2023/09/03 03:49:03;;;;;;;5.50;3.22;;;11.70;99.90;;;;;;5035744;28;20041;-83
2023/09/03 03:51:29;;;;;;;6.38;3.58;;;11.80;99.90;;;;;;5034515;28;20086;-82
2023/09/03 03:53:55;;;;;;;5.93;3.28;;;11.70;99.90;;;;;;5058324;28;20044;-83
2023/09/03 03:56:21;;;;;;;5.53;3.38;;;11.70;99.90;;;;;;5072388;28;20078;-83
2023/09/03 03:58:47;;;;;;;7.45;2.60;;;11.80;99.90;;;;;;5051690;28;20033;-83
2023/09/03 04:01:17;;;;;;;7.13;2.72;;;11.70;99.90;;;;;;5052296;28;20079;-83
2023/09/03 04:03:44;;;;;;;7.00;3.92;;;11.70;99.90;;;;;;5057740;28;20119;-82
2023/09/03 04:06:09;;;;;;;7.15;4.10;;;11.70;99.90;;;;;;5050207;28;20518;-82
2023/09/03 04:08:36;;;;;;;8.10;5.07;;;11.60;99.90;;;;;;5037488;28;20069;-83
2023/09/03 04:11:04;;;;;;;8.50;5.00;;;11.60;99.90;;;;;;5050649;28;20037;-83
2023/09/03 04:13:31;;;;;;;6.82;4.32;;;11.60;99.90;;;;;;5041099;28;20037;-83
2023/09/03 04:15:58;;;;;;;7.38;4.38;;;11.50;99.90;;;;;;5064479;28;20082;-83
2023/09/03 04:18:24;;;;;;;6.20;3.80;;;11.50;99.90;;;;;;5063104;28;20086;-82
2023/09/03 04:20:54;;;;;;;7.00;4.25;;;11.50;99.90;;;;;;5035319;28;20049;-83
2023/09/03 04:23:20;;;;;;;7.63;4.32;;;11.50;99.90;;;;;;5051682;28;20037;-82
2023/09/03 04:25:46;;;;;;;5.53;3.10;;;11.40;99.90;;;;;;5035448;28;20124;-83
2023/09/03 04:28:12;;;;;;;4.47;2.88;;;11.40;99.90;;;;;;5045657;28;20053;-82
2023/09/03 04:30:38;;;;;;;5.25;2.75;;;11.50;99.90;;;;;;5050984;28;20051;-83
2023/09/03 04:33:06;;;;;;;5.30;3.13;;;11.50;99.90;;;;;;5037101;28;20542;-82
2023/09/03 04:35:32;;;;;;;4.40;2.75;;;11.50;99.90;;;;;;5050207;28;20055;-82
2023/09/03 04:37:57;;;;;;;4.75;2.83;;;11.50;99.90;;;;;;5063811;28;20041;-82
2023/09/03 04:40:24;;;;;;;4.63;2.80;;;11.50;99.90;;;;;;5054184;28;20044;-82
2023/09/03 04:42:49;;;;;;;5.43;3.20;;;11.40;99.90;;;;;;5071644;28;20044;-82
2023/09/03 04:45:15;;;;;;;5.45;3.42;;;11.40;99.90;;;;;;5043870;28;20087;-83
2023/09/03 04:47:41;;;;;;;4.63;2.85;;;11.40;99.90;;;;;;5059509;28;20111;-83
2023/09/03 04:50:07;;;;;;;5.28;3.20;;;11.50;99.90;;;;;;5060708;28;20115;-82
2023/09/03 04:52:34;;;;;;;6.88;3.55;;;11.50;99.90;;;;;;5052674;28;20049;-82
2023/09/03 04:55:00;;;;;;;8.30;4.40;;;11.40;99.90;;;;;;5068491;28;20041;-82
2023/09/03 04:57:25;;;;;;;8.40;4.90;;;11.40;99.90;;;;;;5034683;28;20053;-82
2023/09/03 04:59:52;;;;;;;7.03;4.32;;;11.40;99.90;;;;;;5054927;28;20047;-82
2023/09/03 05:02:17;;;;;;;7.70;4.68;;;11.40;99.90;;;;;;5049667;28;20493;-82
2023/09/03 05:04:43;;;;;;;7.53;4.60;;;11.40;99.90;;;;;;5038675;28;20044;-82
2023/09/03 05:07:08;;;;;;;8.07;4.38;;;11.50;99.90;;;;;;5051469;28;20504;-82
2023/09/03 05:09:34;;;;;;;8.30;5.30;;;11.50;99.90;;;;;;5072415;28;20037;-82
2023/09/03 05:11:59;;;;;;;8.38;5.47;;;11.50;99.90;;;;;;5049182;28;20037;-82
2023/09/03 05:14:25;;;;;;;7.78;5.07;;;11.50;99.90;;;;;;5047967;28;20072;-82
2023/09/03 05:16:51;;;;;;;7.32;5.00;;;11.50;99.90;;;;;;5058537;28;20033;-82
2023/09/03 05:19:16;;;;;;;7.32;4.35;;;11.50;99.90;;;;;;5061783;28;20416;-82
2023/09/03 05:21:42;;;;;;;6.40;3.90;;;11.50;99.90;;;;;;5075786;28;20045;-82
2023/09/03 05:24:08;;;;;;;4.28;2.80;;;11.50;99.90;;;;;;5051333;28;20034;-82
2023/09/03 05:26:34;;;;;;;5.93;2.70;;;11.50;99.90;;;;;;5033534;28;20029;-83
2023/09/03 05:28:59;;;;;;;5.10;3.15;;;11.50;99.90;;;;;;5051717;28;20142;-83
2023/09/03 05:31:25;;;;;;;4.35;2.92;;;11.40;99.90;;;;;;5065488;28;20032;-82
2023/09/03 05:33:50;;;;;;;4.35;2.72;;;11.50;99.90;;;;;;5055012;28;20048;-83
2023/09/03 05:36:16;;;;;;;4.40;2.80;;;11.40;99.90;;;;;;5054799;28;20037;-83
2023/09/03 05:38:42;;;;;;;4.60;3.05;;;11.50;99.90;;;;;;5044060;28;20535;-82
2023/09/03 05:41:11;;;;;;;4.57;2.80;;;11.50;99.90;;;;;;5058142;28;20044;-83
2023/09/03 05:43:38;;;;;;;3.95;2.53;;;11.50;99.90;;;;;;5049533;28;20032;-83
2023/09/03 05:46:06;;;;;;;5.20;2.90;;;11.50;99.90;;;;;;5058056;28;20062;-82
2023/09/03 05:48:32;;;;;;;5.40;3.20;;;11.50;99.90;;;;;;5063635;28;20054;-83
2023/09/03 05:51:04;;;;;;;5.47;3.05;;;11.50;99.90;;;;;;5055982;28;20107;-83
2023/09/03 05:53:31;;;;;;;5.03;3.20;;;11.50;99.90;;;;;;5052435;28;20047;-82
2023/09/03 05:56:07;;;;;;;4.53;2.88;;;11.60;99.90;;;;;;5053527;28;20049;-82
2023/09/03 05:58:33;;;;;;;4.95;2.95;;;11.60;99.90;;;;;;5059295;28;20036;-83
2023/09/03 06:01:02;;;;;;;5.07;3.20;;;11.60;99.90;;;;;;5036945;28;20066;-83
2023/09/03 06:03:28;;;;;;;6.05;3.22;;;11.70;99.90;;;;;;5054267;28;20041;-83
2023/09/03 06:05:53;;;;;;;5.90;3.30;;;11.70;99.90;;;;;;5067307;28;20043;-83
2023/09/03 06:08:19;;;;;;;5.00;3.40;;;11.70;99.90;;;;;;5065702;28;20040;-83
2023/09/03 06:10:44;;;;;;;5.53;3.03;;;11.70;99.90;;;;;;5061678;28;20033;-83
2023/09/03 06:13:10;;;;;;;4.93;3.30;;;11.80;99.90;;;;;;5050858;28;20069;-82
2023/09/03 06:15:35;;;;;;;6.45;4.35;;;11.90;99.90;;;;;;5027383;28;20045;-82
2023/09/03 06:18:01;;;;;;;7.60;4.32;;;11.90;99.90;;;;;;5049795;28;20127;-83
2023/09/03 06:20:27;;;;;;;7.63;4.90;;;11.90;99.90;;;;;;5045163;28;20048;-82
2023/09/03 06:22:52;;;;;;;7.53;4.85;;;12.00;99.90;;;;;;5037762;28;20041;-82
2023/09/03 06:25:18;;;;;;;8.45;4.78;;;12.10;99.90;;;;;;5022686;28;20045;-83
2023/09/03 06:27:44;;;;;;;7.97;5.32;;;12.10;99.90;;;;;;5061953;28;20508;-83
2023/09/03 06:30:10;;;;;;;8.63;5.43;;;12.00;99.90;;;;;;5049106;28;20045;-82
2023/09/03 06:32:36;;;;;;;8.38;5.30;;;12.20;99.90;;;;;;5034148;28;20037;-83
2023/09/03 06:35:03;;;;;;;8.52;5.40;;;12.20;99.90;;;;;;5055267;28;20085;-82
2023/09/03 06:37:29;;;;;;;8.60;5.63;;;12.30;99.90;;;;;;5041517;28;20493;-83
2023/09/03 06:39:54;;;;;;;7.80;5.30;;;12.40;99.90;;;;;;5049366;28;20032;-82
2023/09/03 06:42:20;;;;;;;8.48;5.43;;;12.40;99.90;;;;;;5048816;28;20116;-82
2023/09/03 06:44:46;;;;;;;10.43;5.80;;;12.50;99.90;;;;;;5053339;28;20040;-82
2023/09/03 06:47:11;;;;;;;8.48;5.30;;;12.60;99.90;;;;;;5035115;28;20084;-82
2023/09/03 06:49:37;;;;;;;8.80;5.45;;;12.60;99.90;;;;;;5039182;28;20052;-82
2023/09/03 06:52:02;;;;;;;7.70;5.45;;;12.70;99.90;;;;;;5050120;28;20068;-82
2023/09/03 06:54:28;;;;;;;7.65;5.05;;;12.80;99.90;;;;;;5030559;28;20135;-82
2023/09/03 06:56:53;;;;;;;7.78;5.28;;;12.80;99.90;;;;;;5053081;28;20035;-82
2023/09/03 06:59:23;;;;;;;6.07;3.80;;;12.90;99.90;;;;;;5051635;28;20436;-76
2023/09/03 07:01:49;;;;;;;8.00;4.70;;;13.00;99.90;;;;;;5040681;28;20116;-73
2023/09/03 07:04:15;;;;;;;7.70;4.80;;;13.20;99.90;;;;;;5050563;28;20051;-73
2023/09/03 07:06:41;;;;;;;9.15;5.43;;;13.30;99.90;;;;;;5052937;28;20037;-73
2023/09/03 07:09:06;;;;;;;7.57;4.88;;;13.40;99.90;;;;;;5050660;28;20040;-72
2023/09/03 07:11:32;;;;;;;9.30;5.70;;;13.60;99.90;;;;;;5046493;28;20072;-74
2023/09/03 07:13:57;;;;;;;9.70;6.03;;;13.70;99.90;;;;;;5039409;28;20091;-73
2023/09/03 07:16:23;;;;;;;9.30;6.35;;;13.80;99.90;;;;;;5037033;28;20045;-72
2023/09/03 07:18:49;;;;;;;8.27;5.55;;;14.00;99.90;;;;;;5050292;28;20121;-74
2023/09/03 07:21:14;;;;;;;9.75;5.72;;;14.10;99.90;;;;;;5051303;28;20044;-74
2023/09/03 07:23:40;;;;;;;8.70;5.93;;;14.20;99.90;;;;;;5052516;28;20049;-74
2023/09/03 07:26:06;;;;;;;10.82;6.53;;;14.30;99.90;;;;;;5051663;28;20033;-78
2023/09/03 07:28:32;;;;;;;8.68;5.50;;;14.40;99.90;;;;;;5046612;28;20132;-69
2023/09/03 07:30:58;;;;;;;10.38;6.47;;;14.60;99.90;;;;;;5032051;28;20473;-75
2023/09/03 07:33:24;;;;;;;9.73;5.60;;;14.70;99.90;;;;;;5062691;28;20040;-75
2023/09/03 07:35:49;;;;;;;9.10;5.38;;;14.80;99.90;;;;;;5039888;28;20501;-75
2023/09/03 07:38:15;;;;;;;8.75;4.88;;;14.90;99.90;;;;;;5035183;28;20048;-75
2023/09/03 07:40:40;;;;;;;9.52;4.90;;;14.90;99.90;;;;;;5033338;28;20052;-75
2023/09/03 07:43:06;;;;;;;7.40;4.53;;;15.10;99.90;;;;;;5036962;28;20072;-74
2023/09/03 07:45:32;;;;;;;8.32;4.45;;;15.20;99.90;;;;;;5048543;28;20491;-74
2023/09/03 07:47:57;;;;;;;9.27;4.38;;;15.30;99.90;;;;;;5060870;28;20025;-74
2023/09/03 07:50:23;;;;;;;8.52;4.30;;;15.40;99.90;;;;;;5032954;28;20038;-75
2023/09/03 07:52:48;;;;;;;6.90;4.50;;;15.50;99.90;;;;;;5048910;28;20052;-74
2023/09/03 07:55:15;;;;;;;6.63;3.88;;;15.50;99.90;;;;;;5036208;28;20045;-74
2023/09/03 07:57:41;;;;;;;8.65;3.92;;;15.60;99.90;;;;;;5062874;28;20542;-74
2023/09/03 08:00:07;;;;;;;6.95;3.88;;;15.60;99.90;;;;;;5058255;28;20045;-74
2023/09/03 08:02:32;;;;;;;5.90;3.10;;;15.70;99.90;;;;;;5022563;28;20486;-75
2023/09/03 08:04:58;;;;;;;8.38;3.42;;;15.80;99.90;;;;;;5031978;28;20040;-75
2023/09/03 08:07:24;;;;;;;5.95;2.92;;;15.80;99.90;;;;;;5067836;28;20488;-74
2023/09/03 08:09:50;;;;;;;7.85;2.65;;;15.90;99.90;;;;;;5073031;28;20039;-77
2023/09/03 08:12:16;;;;;;;6.95;3.15;;;16.00;99.90;;;;;;5060493;28;20049;-77
2023/09/03 08:14:43;;;;;;;7.38;2.83;;;16.10;99.90;;;;;;5034946;28;20041;-82
2023/09/03 08:17:09;;;;;;;6.10;2.35;;;16.20;99.90;;;;;;5035248;28;20099;-82
2023/09/03 08:19:35;;;;;;;6.07;2.40;;;16.20;99.90;;;;;;5045442;28;20041;-82
2023/09/03 08:22:00;;;;;;;6.10;2.33;;;16.30;99.90;;;;;;5018104;28;20120;-82
2023/09/03 08:24:27;;;;;;;3.90;2.08;;;16.40;99.90;;;;;;5052210;28;20037;-82
2023/09/03 08:26:52;;;;;;;6.15;2.30;;;16.40;99.90;;;;;;5034480;28;20116;-82
2023/09/03 08:29:18;;;;;;;5.85;2.35;;;16.50;99.90;;;;;;5051931;28;20121;-83
2023/09/03 08:31:44;;;;;;;7.57;2.40;;;16.60;99.90;;;;;;5035085;28;20128;-83
2023/09/03 08:34:09;;;;;;;4.82;2.35;;;16.70;99.90;;;;;;5050397;28;20037;-83
2023/09/03 08:36:35;;;;;;;5.95;2.28;;;16.70;99.90;;;;;;5028427;28;20033;-83
2023/09/03 08:39:02;;;;;;;4.00;2.28;;;16.80;99.90;;;;;;5031621;28;20402;-83
2023/09/03 08:41:27;;;;;;;4.68;1.85;;;16.90;99.90;;;;;;5051883;28;20052;-83
2023/09/03 08:44:02;;;;;;;6.43;2.35;;;17.00;99.90;;;;;;5033527;28;20045;-83
2023/09/03 08:46:30;;;;;;;5.78;2.50;;;17.20;99.90;;;;;;5034622;28;20037;-83
2023/09/03 08:48:58;;;;;;;5.57;2.60;;;17.20;99.90;;;;;;5051406;28;20385;-83
2023/09/03 08:51:25;;;;;;;5.07;2.28;;;17.30;99.90;;;;;;5052616;28;20048;-83
2023/09/03 08:53:51;;;;;;;5.68;2.22;;;17.30;99.90;;;;;;5041405;28;20405;-83
2023/09/03 08:56:17;;;;;;;6.18;2.20;;;17.40;99.90;;;;;;5031584;28;20041;-83
2023/09/03 08:58:43;;;;;;;4.88;1.85;;;17.50;99.90;;;;;;5070575;28;20052;-83
2023/09/03 09:01:11;;;;;;;5.75;2.38;;;17.60;99.90;;;;;;5058630;28;20048;-83
2023/09/03 09:03:38;;;;;;;5.63;2.20;;;17.70;99.90;;;;;;5034792;28;20029;-83
2023/09/03 09:06:06;;;;;;;4.53;2.17;;;17.70;99.90;;;;;;5055322;28;20040;-83
2023/09/03 09:08:33;;;;;;;5.93;2.15;;;17.70;99.90;;;;;;5054850;28;20040;-83
2023/09/03 09:11:04;;;;;;;5.35;2.17;;;17.70;99.90;;;;;;5028667;28;20046;-82
2023/09/03 09:13:35;;;;;;;4.77;2.10;;;17.90;99.90;;;;;;5036517;28;20048;-78
2023/09/03 09:16:01;;;;;;;3.63;2.08;;;18.00;99.90;;;;;;5038336;28;20287;-82
2023/09/03 09:18:26;;;;;;;3.92;1.95;;;18.10;99.90;;;;;;5044531;28;20508;-82
2023/09/03 09:20:56;;;;;;;4.15;2.03;;;18.20;99.90;;;;;;5054828;28;20132;-83
2023/09/03 09:23:22;;;;;;;3.13;1.92;;;18.30;99.90;;;;;;5038023;28;20436;-82
2023/09/03 09:25:48;;;;;;;5.47;2.08;;;18.30;99.90;;;;;;5053787;28;20099;-82
2023/09/03 09:28:14;;;;;;;7.35;2.10;;;18.30;99.90;;;;;;5045856;28;20494;-83
2023/09/03 09:30:56;;;;;;;3.03;1.80;;;18.30;99.90;;;;;;5066605;28;20397;-75
2023/09/03 09:33:23;;;;;;;3.95;1.80;;;18.30;99.90;;;;;;5045841;28;20063;-83
2023/09/03 09:35:49;;;;;;;4.35;1.88;;;18.40;99.90;;;;;;5043282;28;20028;-83
2023/09/03 09:38:16;;;;;;;5.85;2.20;;;18.40;99.90;;;;;;5033013;28;20049;-83
2023/09/03 09:40:42;;;;;;;4.90;1.88;;;18.40;99.90;;;;;;5069691;28;20032;-83
2023/09/03 09:43:08;;;;;;;4.53;2.10;;;18.50;99.90;;;;;;5053231;28;20033;-83
2023/09/03 09:45:46;;;;;;;4.40;2.22;;;18.60;99.90;;;;;;5054300;28;20037;-83
2023/09/03 09:48:12;;;;;;;4.95;1.85;;;18.60;99.90;;;;;;5061145;28;20024;-83
2023/09/03 09:50:40;;;;;;;4.30;2.05;;;18.60;99.90;;;;;;5078513;28;20044;-83
2023/09/03 09:53:19;;;;;;;5.43;1.83;;;18.60;99.90;;;;;;5043284;28;20045;-83
2023/09/03 09:55:45;;;;;;;4.75;1.90;;;18.70;99.90;;;;;;5051042;28;20037;-83
2023/09/03 09:58:12;;;;;;;2.95;1.70;;;18.80;99.90;;;;;;5037644;28;20110;-83
2023/09/03 10:00:41;;;;;;;3.38;1.63;;;18.80;99.90;;;;;;5037725;28;20041;-83
2023/09/03 10:03:10;;;;;;;3.80;1.60;;;18.80;99.90;;;;;;5034807;28;20053;-84
2023/09/03 10:05:37;;;;;;;5.68;1.90;;;18.80;99.90;;;;;;5044698;28;20547;-83
2023/09/03 10:08:03;;;;;;;3.58;1.90;;;18.80;99.90;;;;;;5053262;28;20049;-83
2023/09/03 10:10:30;;;;;;;3.35;1.70;;;18.90;99.90;;;;;;5053662;28;20037;-83
2023/09/03 10:12:55;;;;;;;4.07;1.73;;;19.00;99.90;;;;;;5037392;28;20397;-83
2023/09/03 10:15:22;;;;;;;4.20;2.00;;;19.00;99.90;;;;;;5056596;28;20032;-83
2023/09/03 10:17:52;;;;;;;3.25;1.70;;;19.00;99.90;;;;;;5020597;28;20120;-83
2023/09/03 10:20:20;;;;;;;3.88;1.70;;;19.10;99.90;;;;;;5059767;28;20115;-83
2023/09/03 10:22:49;;;;;;;4.88;2.00;;;19.10;99.90;;;;;;5052737;28;20053;-83
2023/09/03 10:25:18;;;;;;;4.65;1.88;;;19.20;99.90;;;;;;5043653;28;20033;-84
2023/09/03 10:27:48;;;;;;;3.90;1.90;;;19.20;99.90;;;;;;5036823;28;20140;-83
2023/09/03 10:30:17;;;;;;;4.90;2.30;;;19.20;99.90;;;;;;5039451;28;20037;-83
2023/09/03 10:32:45;;;;;;;5.82;2.25;;;19.30;99.90;;;;;;5066426;28;20044;-83
2023/09/03 10:35:12;;;;;;;4.78;1.75;;;19.30;99.90;;;;;;5033573;28;20049;-83
2023/09/03 10:37:41;;;;;;;4.45;1.58;;;19.30;99.90;;;;;;5033930;28;20045;-83
2023/09/03 10:40:36;;;;;;;3.75;1.60;;;19.40;99.90;;;;;;5033322;28;20079;-83
2023/09/03 10:43:18;;;;;;;5.40;1.60;;;19.50;99.90;;;;;;5034869;28;20049;-84
2023/09/03 10:46:04;;;;;;;3.92;1.50;;;19.50;99.90;;;;;;5048676;28;20047;-83
2023/09/03 10:48:30;;;;;;;5.57;1.90;;;19.50;99.90;;;;;;5062964;28;20049;-83
2023/09/03 10:50:55;;;;;;;5.55;1.75;;;19.60;99.90;;;;;;5051739;28;20039;-83
2023/09/03 10:53:38;;;;;;;3.03;1.40;;;19.60;99.90;;;;;;5051087;28;20485;-83
2023/09/03 10:56:09;;;;;;;3.33;1.40;;;19.70;99.90;;;;;;5056813;28;20400;-83
2023/09/03 10:58:34;;;;;;;3.05;1.40;;;19.70;99.90;;;;;;5056265;28;20048;-83
2023/09/03 11:01:22;;;;;;;4.72;1.63;;;19.80;99.90;;;;;;5074690;28;20037;-84
2023/09/03 11:03:50;;;;;;;4.38;1.80;;;19.80;99.90;;;;;;5050105;28;20076;-83
2023/09/03 11:06:21;;;;;;;4.35;1.73;;;19.90;99.90;;;;;;5032585;28;20040;-83
2023/09/03 11:08:47;;;;;;;6.32;2.10;;;20.00;99.90;;;;;;5037746;28;20151;-83
2023/09/03 11:11:20;;;;;;;2.80;1.48;;;19.90;99.90;;;;;;5023138;28;20037;-84
2023/09/03 11:13:53;;;;;;;3.15;1.65;;;19.90;99.90;;;;;;5040594;28;20130;-83
2023/09/03 11:16:29;;;;;;;3.95;1.60;;;19.90;99.90;;;;;;5036223;28;20065;-83
2023/09/03 11:18:55;;;;;;;3.67;1.50;;;20.00;99.90;;;;;;5055477;28;20432;-83
2023/09/03 11:21:25;;;;;;;3.13;1.40;;;20.00;99.90;;;;;;5039525;28;20041;-84
2023/09/03 11:24:00;;;;;;;3.08;1.30;;;20.00;99.90;;;;;;5047497;28;20406;-84
2023/09/03 11:26:27;;;;;;;2.22;1.20;;;20.00;99.90;;;;;;5030157;28;20143;-83
2023/09/03 11:28:52;;;;;;;2.05;1.10;;;20.00;99.90;;;;;;5055265;28;20079;-83
2023/09/03 11:31:18;;;;;;;4.43;1.25;;;20.00;99.90;;;;;;5053370;28;20053;-83
2023/09/03 11:33:44;;;;;;;2.65;1.45;;;20.10;99.90;;;;;;5015882;28;20123;-83
2023/09/03 11:36:10;;;;;;;2.78;1.33;;;20.10;99.90;;;;;;5024597;28;20068;-83
2023/09/03 11:38:35;;;;;;;4.35;1.67;;;20.10;99.90;;;;;;5031867;28;20107;-83
2023/09/03 11:41:01;;;;;;;4.00;1.50;;;20.10;99.90;;;;;;5015682;28;20045;-83
2023/09/03 11:43:31;;;;;;;3.25;1.40;;;20.00;99.90;;;;;;5031141;28;20057;-83
2023/09/03 11:46:00;;;;;;;3.53;1.60;;;20.10;99.90;;;;;;5032131;28;20055;-83
2023/09/03 11:48:27;;;;;;;3.22;1.30;;;20.10;99.90;;;;;;5050576;28;20481;-83
2023/09/03 11:50:53;;;;;;;5.53;1.70;;;20.20;99.90;;;;;;5037665;28;20058;-83
2023/09/03 11:53:19;;;;;;;3.92;1.30;;;20.10;99.90;;;;;;5050175;28;20436;-83
2023/09/03 11:55:52;;;;;;;3.33;1.27;;;20.10;99.90;;;;;;5039996;28;20029;-83
2023/09/03 11:58:20;;;;;;;2.20;1.23;;;20.00;99.90;;;;;;5052888;28;20120;-83
2023/09/03 12:00:46;;;;;;;2.95;1.50;;;20.10;99.90;;;;;;5030753;28;20087;-83
2023/09/03 12:03:13;;;;;;;4.10;1.50;;;20.10;99.90;;;;;;5039156;28;20621;-83
2023/09/03 12:05:39;;;;;;;1.98;1.20;;;20.20;99.90;;;;;;5065597;28;20040;-84
2023/09/03 12:08:05;;;;;;;3.22;1.45;;;20.30;99.90;;;;;;5048353;28;20409;-82
2023/09/03 12:10:31;;;;;;;3.15;1.30;;;20.30;99.90;;;;;;5030501;28;20432;-83
2023/09/03 12:12:59;;;;;;;3.70;1.42;;;20.30;99.90;;;;;;5045216;28;20607;-83
2023/09/03 12:15:25;;;;;;;3.75;1.40;;;20.30;99.90;;;;;;5050369;28;20112;-83
2023/09/03 12:17:52;;;;;;;2.92;1.10;;;20.40;99.90;;;;;;5042957;28;20052;-83
2023/09/03 12:20:39;;;;;;;4.90;1.30;;;20.40;99.90;;;;;;5049223;28;20202;-83
2023/09/03 12:23:13;;;;;;;3.55;1.50;;;20.40;99.90;;;;;;5059999;28;20041;-83
2023/09/03 12:25:40;;;;;;;3.17;1.42;;;20.40;99.90;;;;;;5038931;28;20034;-83
2023/09/03 12:28:06;;;;;;;4.03;1.40;;;20.50;99.90;;;;;;5035813;28;20509;-83
2023/09/03 12:30:58;;;;;;;3.83;1.50;;;20.40;99.90;;;;;;5031945;28;20421;-83
2023/09/03 12:33:44;;;;;;;3.17;1.50;;;20.50;99.90;;;;;;5032814;28;20041;-83
2023/09/03 12:36:15;;;;;;;4.95;1.20;;;20.50;99.90;;;;;;5034119;28;20046;-83
2023/09/03 12:38:57;;;;;;;3.63;1.23;;;20.40;99.90;;;;;;5020242;28;20502;-83
2023/09/03 12:41:30;;;;;;;2.30;1.30;;;20.40;99.90;;;;;;5035414;28;20538;-83
2023/09/03 12:43:55;;;;;;;3.08;1.38;;;20.50;99.90;;;;;;5021794;28;20029;-83
2023/09/03 12:46:22;;;;;;;1.83;1.30;;;20.60;99.90;;;;;;5037374;28;20096;-83
2023/09/03 12:48:48;;;;;;;4.07;1.67;;;20.70;99.90;;;;;;5054141;28;20037;-83